Time;durP1;ratioP1;P1;durP2;ratioP2;P2;SDS_P1;SDS_P2;PMS_P1;PMS_P2;Temp;Humidity;BMP_temperature;BMP_pressure;BME280_temperature;BME280_humidity;BME280_pressure;Samples;Min_cycle;Max_cycle;Signal;HPM_P1;HPM_P2
2022/09/11 00:01:47;;;;;;;3.30;1.00;;;;;;;;;;5047014;28;20040;-44
2022/09/11 00:04:12;;;;;;;4.45;1.13;;;;;;;;;;5045147;28;20041;-44
2022/09/11 00:06:38;;;;;;;1.25;0.80;;;;;;;;;;5045808;28;20049;-44
2022/09/11 00:09:05;;;;;;;1.40;1.05;;;;;;;;;;5044190;28;20036;-44
2022/09/11 00:11:34;;;;;;;1.67;0.85;;;;;;;;;;5044661;28;20395;-46
2022/09/11 00:14:01;;;;;;;4.50;1.00;;;;;;;;;;5047717;28;20126;-44
2022/09/11 00:16:32;;;;;;;2.00;1.02;;;;;;;;;;5047781;28;20071;-44
2022/09/11 00:19:01;;;;;;;1.35;0.73;;;;;;;;;;5047202;28;20048;-47
2022/09/11 00:21:27;;;;;;;2.00;1.20;;;;;;;;;;5047349;28;20041;-48
2022/09/11 00:23:52;;;;;;;3.05;0.80;;;;;;;;;;5043616;28;20064;-47
2022/09/11 00:26:19;;;;;;;2.03;0.85;;;;;;;;;;5047014;28;20040;-45
2022/09/11 00:28:46;;;;;;;3.40;1.02;;;;;;;;;;5043326;28;20047;-47
2022/09/11 00:31:15;;;;;;;2.90;1.15;;;;;;;;;;5046427;28;20049;-44
2022/09/11 00:33:41;;;;;;;1.00;0.75;;;;;;;;;;5047692;28;20037;-44
2022/09/11 00:36:11;;;;;;;3.15;1.15;;;;;;;;;;5045162;28;20116;-44
2022/09/11 00:38:37;;;;;;;3.15;0.75;;;;;;;;;;5044735;28;20053;-44
2022/09/11 00:41:07;;;;;;;1.77;0.82;;;;;;;;;;5043089;28;20048;-44
2022/09/11 00:43:54;;;;;;;3.05;1.30;;;;;;;;;;5048352;28;20068;-45
2022/09/11 00:46:25;;;;;;;2.15;1.00;;;;;;;;;;5045700;28;20045;-47
2022/09/11 00:48:51;;;;;;;4.78;0.93;;;;;;;;;;5043740;28;20055;-44
2022/09/11 00:51:21;;;;;;;2.33;0.80;;;;;;;;;;5046323;28;20045;-45
2022/09/11 00:53:49;;;;;;;4.85;1.10;;;;;;;;;;5047483;28;20156;-44
2022/09/11 00:56:15;;;;;;;6.05;1.23;;;;;;;;;;5044194;28;20037;-47
2022/09/11 00:58:44;;;;;;;1.60;0.80;;;;;;;;;;5045451;28;20106;-47
2022/09/11 01:01:10;;;;;;;1.75;1.00;;;;;;;;;;5044988;28;20037;-47
2022/09/11 01:03:37;;;;;;;2.13;1.10;;;;;;;;;;5045918;28;20053;-43
2022/09/11 01:06:03;;;;;;;1.90;0.80;;;;;;;;;;5046797;28;20087;-44
2022/09/11 01:08:29;;;;;;;3.83;1.08;;;;;;;;;;5046481;28;20033;-44
2022/09/11 01:11:28;;;;;;;3.25;1.00;;;;;;;;;;5046410;28;20509;-44
2022/09/11 01:14:05;;;;;;;4.07;0.70;;;;;;;;;;5044425;28;20040;-45
2022/09/11 01:16:48;;;;;;;1.15;0.82;;;;;;;;;;5046587;28;20037;-44
2022/09/11 01:19:52;;;;;;;3.28;0.80;;;;;;;;;;5045079;28;20040;-46
2022/09/11 01:22:45;;;;;;;1.60;0.88;;;;;;;;;;5041841;28;20477;-44
2022/09/11 01:25:38;;;;;;;3.75;1.27;;;;;;;;;;5043448;28;20737;-45
2022/09/11 01:28:07;;;;;;;;;;;;;;;;;;5046806;28;20072;-45
2022/09/11 01:30:38;;;;;;;0.85;0.80;;;;;;;;;;5041922;28;19968;-45
2022/09/11 01:33:07;;;;;;;1.65;1.00;;;;;;;;;;5043126;28;20041;-43
2022/09/11 01:35:47;;;;;;;3.40;1.08;;;;;;;;;;5046399;28;20045;-44
2022/09/11 01:38:21;;;;;;;1.95;0.80;;;;;;;;;;5044409;28;20051;-45
2022/09/11 01:40:57;;;;;;;4.07;1.02;;;;;;;;;;5045293;28;20265;-44
2022/09/11 01:43:32;;;;;;;2.42;1.08;;;;;;;;;;5044561;28;20123;-48
2022/09/11 01:46:01;;;;;;;2.40;1.00;;;;;;;;;;5044089;28;20505;-45
2022/09/11 01:48:34;;;;;;;2.53;0.88;;;;;;;;;;5045693;28;20051;-43
2022/09/11 01:51:02;;;;;;;4.45;1.30;;;;;;;;;;5045919;28;20036;-45
2022/09/11 01:53:42;;;;;;;1.38;0.98;;;;;;;;;;5043184;28;20080;-48
2022/09/11 01:56:19;;;;;;;1.83;0.80;;;;;;;;;;5042839;28;20040;-44
2022/09/11 01:58:46;;;;;;;2.70;1.20;;;;;;;;;;5045627;28;20044;-44
2022/09/11 02:01:19;;;;;;;1.40;0.90;;;;;;;;;;5027684;28;20041;-46
2022/09/11 02:03:54;;;;;;;2.47;1.35;;;;;;;;;;5044514;28;20405;-43
2022/09/11 02:06:25;;;;;;;4.47;1.27;;;;;;;;;;5045792;28;20508;-46
2022/09/11 02:08:59;;;;;;;2.15;0.70;;;;;;;;;;5041890;28;20049;-44
2022/09/11 02:11:27;;;;;;;1.77;1.00;;;;;;;;;;5045776;28;20072;-45
2022/09/11 02:14:15;;;;;;;1.40;1.00;;;;;;;;;;5046294;28;20130;-44
2022/09/11 02:16:47;;;;;;;3.20;0.80;;;;;;;;;;5045254;28;20045;-44
2022/09/11 02:19:15;;;;;;;;;;;;;;;;;;5044227;28;20033;-44
2022/09/11 02:21:41;;;;;;;1.45;0.88;;;;;;;;;;5045856;28;19971;-44
2022/09/11 02:24:08;;;;;;;1.42;0.80;;;;;;;;;;5042630;28;20510;-44
2022/09/11 02:26:40;;;;;;;2.97;1.25;;;;;;;;;;5047410;28;20559;-44
2022/09/11 02:29:06;;;;;;;1.42;0.90;;;;;;;;;;5047943;28;20044;-44
2022/09/11 02:31:33;;;;;;;1.10;0.80;;;;;;;;;;5049860;28;20041;-47
2022/09/11 02:33:59;;;;;;;2.35;0.70;;;;;;;;;;5048440;28;20037;-44
2022/09/11 02:36:39;;;;;;;1.20;0.90;;;;;;;;;;5049385;28;20106;-45
2022/09/11 02:39:31;;;;;;;2.70;1.02;;;;;;;;;;5045906;28;20048;-45
2022/09/11 02:42:26;;;;;;;2.45;0.90;;;;;;;;;;5047221;28;20037;-43
2022/09/11 02:45:11;;;;;;;1.33;0.75;;;;;;;;;;5042246;28;20426;-44
2022/09/11 02:47:36;;;;;;;1.33;0.60;;;;;;;;;;5044384;28;20064;-44
2022/09/11 02:50:18;;;;;;;3.72;0.80;;;;;;;;;;5048483;28;20481;-45
2022/09/11 02:52:57;;;;;;;1.98;1.02;;;;;;;;;;5047434;28;20033;-47
2022/09/11 02:55:34;;;;;;;1.42;0.68;;;;;;;;;;5048455;28;20048;-44
2022/09/11 02:58:12;;;;;;;2.10;0.85;;;;;;;;;;5045642;28;20037;-45
2022/09/11 03:00:38;;;;;;;1.70;1.02;;;;;;;;;;5047743;28;20695;-44
2022/09/11 03:03:04;;;;;;;5.45;1.08;;;;;;;;;;5047489;28;20048;-44
2022/09/11 03:05:30;;;;;;;2.08;0.80;;;;;;;;;;5048668;28;20059;-44
2022/09/11 03:07:55;;;;;;;1.52;0.82;;;;;;;;;;5047315;28;20064;-43
2022/09/11 03:10:21;;;;;;;2.55;0.60;;;;;;;;;;5045018;28;20029;-44
2022/09/11 03:12:47;;;;;;;2.03;0.82;;;;;;;;;;5047890;28;20064;-46
2022/09/11 03:15:12;;;;;;;1.95;0.70;;;;;;;;;;5048669;28;20037;-43
2022/09/11 03:17:39;;;;;;;9.15;1.10;;;;;;;;;;5045800;28;20094;-46
2022/09/11 03:20:05;;;;;;;3.47;0.80;;;;;;;;;;5044757;28;20033;-45
2022/09/11 03:22:30;;;;;;;1.80;0.95;;;;;;;;;;5047953;28;20124;-45
2022/09/11 03:24:56;;;;;;;3.40;0.88;;;;;;;;;;5047624;28;20136;-47
2022/09/11 03:27:22;;;;;;;3.67;1.02;;;;;;;;;;5044281;28;20037;-43
2022/09/11 03:29:48;;;;;;;1.70;0.70;;;;;;;;;;5044701;28;20033;-44
2022/09/11 03:32:15;;;;;;;1.05;0.75;;;;;;;;;;5047497;28;20047;-43
2022/09/11 03:34:40;;;;;;;6.65;0.80;;;;;;;;;;5047589;28;21763;-46
2022/09/11 03:37:06;;;;;;;4.32;0.98;;;;;;;;;;5046046;28;20044;-43
2022/09/11 03:39:31;;;;;;;1.67;0.60;;;;;;;;;;5048312;28;20342;-44
2022/09/11 03:41:57;;;;;;;1.42;0.70;;;;;;;;;;5043986;28;20041;-43
2022/09/11 03:44:22;;;;;;;3.92;1.05;;;;;;;;;;5047783;28;20037;-44
2022/09/11 03:46:48;;;;;;;1.00;0.75;;;;;;;;;;5048136;28;20037;-46
2022/09/11 03:49:14;;;;;;;1.30;0.60;;;;;;;;;;5046066;28;20406;-46
2022/09/11 03:51:40;;;;;;;2.03;0.63;;;;;;;;;;5046666;28;20041;-44
2022/09/11 03:54:06;;;;;;;1.02;0.63;;;;;;;;;;5045250;28;20055;-44
2022/09/11 03:56:32;;;;;;;1.23;0.88;;;;;;;;;;5044110;28;20060;-49
2022/09/11 03:59:01;;;;;;;2.50;1.13;;;;;;;;;;5046868;28;20112;-44
2022/09/11 04:01:27;;;;;;;2.38;0.63;;;;;;;;;;5046015;28;20521;-46
2022/09/11 04:03:52;;;;;;;2.83;1.02;;;;;;;;;;5048204;28;20068;-44
2022/09/11 04:06:19;;;;;;;2.22;0.70;;;;;;;;;;5045279;28;20392;-45
2022/09/11 04:08:45;;;;;;;0.85;0.65;;;;;;;;;;5044333;28;20063;-44
2022/09/11 04:11:11;;;;;;;4.60;0.98;;;;;;;;;;5047053;28;20045;-43
2022/09/11 04:13:38;;;;;;;1.00;0.57;;;;;;;;;;5045437;28;20059;-43
2022/09/11 04:16:13;;;;;;;2.38;0.77;;;;;;;;;;5045434;28;20029;-45
2022/09/11 04:18:40;;;;;;;1.23;0.95;;;;;;;;;;5046668;28;20155;-44
2022/09/11 04:21:08;;;;;;;0.88;0.60;;;;;;;;;;5046704;28;20045;-44
2022/09/11 04:23:34;;;;;;;2.97;0.65;;;;;;;;;;5043333;28;20108;-44
2022/09/11 04:26:00;;;;;;;2.42;0.73;;;;;;;;;;5043038;28;20418;-45
2022/09/11 04:28:30;;;;;;;3.60;0.95;;;;;;;;;;5047375;28;20119;-45
2022/09/11 04:31:01;;;;;;;4.53;0.60;;;;;;;;;;5044691;28;20072;-41
2022/09/11 04:33:27;;;;;;;1.25;0.50;;;;;;;;;;5045518;28;20042;-43
2022/09/11 04:35:52;;;;;;;4.43;0.70;;;;;;;;;;5045121;28;20367;-44
2022/09/11 04:38:18;;;;;;;3.45;0.85;;;;;;;;;;5047152;28;20048;-45
2022/09/11 04:40:44;;;;;;;2.20;0.70;;;;;;;;;;5044307;28;20033;-44
2022/09/11 04:43:10;;;;;;;3.03;0.80;;;;;;;;;;5046618;28;20037;-44
2022/09/11 04:45:37;;;;;;;3.42;0.63;;;;;;;;;;5045201;28;20170;-44
2022/09/11 04:48:03;;;;;;;2.83;0.80;;;;;;;;;;5044668;28;20048;-44
2022/09/11 04:50:30;;;;;;;1.60;0.93;;;;;;;;;;5046452;28;20048;-43
2022/09/11 04:52:57;;;;;;;4.40;0.90;;;;;;;;;;5046071;28;20124;-40
2022/09/11 04:55:23;;;;;;;2.45;1.05;;;;;;;;;;5044178;28;20402;-44
2022/09/11 04:57:49;;;;;;;2.22;0.77;;;;;;;;;;5045417;28;20494;-44
2022/09/11 05:00:15;;;;;;;2.15;0.98;;;;;;;;;;5046153;28;20171;-43
2022/09/11 05:02:41;;;;;;;1.88;0.70;;;;;;;;;;5045045;28;20068;-44
2022/09/11 05:05:08;;;;;;;5.20;0.80;;;;;;;;;;5041039;28;20486;-43
2022/09/11 05:07:34;;;;;;;1.00;0.73;;;;;;;;;;5045802;28;20043;-44
2022/09/11 05:10:01;;;;;;;1.42;0.70;;;;;;;;;;5045832;28;20758;-44
2022/09/11 05:12:28;;;;;;;1.58;0.80;;;;;;;;;;5043179;28;20043;-43
2022/09/11 05:14:54;;;;;;;1.98;0.90;;;;;;;;;;5046314;28;20549;-46
2022/09/11 05:17:20;;;;;;;1.63;0.70;;;;;;;;;;5046392;28;20056;-45
2022/09/11 05:19:45;;;;;;;1.58;0.80;;;;;;;;;;5047154;28;20388;-44
2022/09/11 05:22:11;;;;;;;4.22;1.08;;;;;;;;;;5042623;28;20036;-44
2022/09/11 05:24:37;;;;;;;1.58;0.77;;;;;;;;;;5044142;28;20041;-45
2022/09/11 05:27:03;;;;;;;1.48;0.85;;;;;;;;;;5047055;28;20033;-44
2022/09/11 05:29:29;;;;;;;1.00;0.80;;;;;;;;;;5045534;28;20029;-45
2022/09/11 05:31:57;;;;;;;1.08;0.80;;;;;;;;;;5047774;28;20379;-43
2022/09/11 05:34:29;;;;;;;6.20;0.90;;;;;;;;;;5046434;28;20122;-44
2022/09/11 05:36:58;;;;;;;2.05;0.88;;;;;;;;;;5042893;28;20056;-44
2022/09/11 05:39:24;;;;;;;4.90;1.13;;;;;;;;;;5040663;28;20049;-44
2022/09/11 05:41:54;;;;;;;4.97;0.90;;;;;;;;;;5040603;28;20051;-44
2022/09/11 05:44:20;;;;;;;1.15;0.80;;;;;;;;;;5039788;28;20409;-43
2022/09/11 05:46:45;;;;;;;2.30;0.90;;;;;;;;;;5038253;28;20037;-44
2022/09/11 05:49:11;;;;;;;1.98;0.90;;;;;;;;;;5039703;28;20048;-43
2022/09/11 05:51:39;;;;;;;1.10;0.65;;;;;;;;;;5039068;28;20504;-46
2022/09/11 05:54:04;;;;;;;2.33;1.00;;;;;;;;;;5042142;28;20433;-44
2022/09/11 05:56:30;;;;;;;2.80;0.80;;;;;;;;;;5040971;28;20048;-44
2022/09/11 05:58:56;;;;;;;6.53;1.00;;;;;;;;;;5042591;28;20029;-44
2022/09/11 06:01:24;;;;;;;1.85;0.82;;;;;;;;;;5044052;28;20041;-45
2022/09/11 06:03:50;;;;;;;1.00;0.80;;;;;;;;;;5045277;28;20045;-45
2022/09/11 06:06:17;;;;;;;1.92;0.77;;;;;;;;;;5045972;28;20579;-44
2022/09/11 06:08:43;;;;;;;2.88;0.80;;;;;;;;;;5042856;28;20030;-45
2022/09/11 06:11:11;;;;;;;2.70;1.20;;;;;;;;;;5045754;28;20379;-44
2022/09/11 06:13:42;;;;;;;1.73;1.33;;;;;;;;;;5040971;28;20037;-46
2022/09/11 06:16:13;;;;;;;5.07;1.50;;;;;;;;;;5042593;28;20398;-43
2022/09/11 06:18:38;;;;;;;2.90;1.05;;;;;;;;;;5045437;28;20436;-44
2022/09/11 06:21:07;;;;;;;3.13;1.02;;;;;;;;;;5043821;28;20094;-47
2022/09/11 06:23:34;;;;;;;2.08;1.00;;;;;;;;;;5046666;28;20156;-49
2022/09/11 06:26:07;;;;;;;2.42;0.80;;;;;;;;;;5042643;28;20033;-46
2022/09/11 06:28:35;;;;;;;4.43;1.08;;;;;;;;;;5044442;28;20124;-43
2022/09/11 06:31:02;;;;;;;5.00;1.15;;;;;;;;;;5041428;28;20568;-45
2022/09/11 06:33:33;;;;;;;1.48;0.80;;;;;;;;;;5045303;28;20047;-46
2022/09/11 06:35:59;;;;;;;4.65;1.00;;;;;;;;;;5048013;28;20053;-46
2022/09/11 06:38:26;;;;;;;3.75;0.82;;;;;;;;;;5049680;28;20041;-44
2022/09/11 06:40:52;;;;;;;1.05;0.70;;;;;;;;;;5044613;28;20087;-45
2022/09/11 06:43:18;;;;;;;4.18;1.05;;;;;;;;;;5043984;28;20084;-44
2022/09/11 06:45:47;;;;;;;1.23;0.80;;;;;;;;;;5049063;28;20037;-45
2022/09/11 06:48:17;;;;;;;0.80;0.70;;;;;;;;;;5048457;28;20041;-47
2022/09/11 06:50:43;;;;;;;3.92;0.93;;;;;;;;;;5046108;28;20118;-46
2022/09/11 06:53:10;;;;;;;0.98;0.70;;;;;;;;;;5047034;28;20490;-44
2022/09/11 06:55:37;;;;;;;3.03;1.00;;;;;;;;;;5049271;28;20049;-49
2022/09/11 06:58:03;;;;;;;3.45;0.90;;;;;;;;;;5047875;28;20051;-45
2022/09/11 07:00:28;;;;;;;3.03;1.42;;;;;;;;;;5049489;28;20037;-46
2022/09/11 07:02:55;;;;;;;4.20;1.15;;;;;;;;;;5047861;28;20064;-45
2022/09/11 07:05:21;;;;;;;6.13;1.23;;;;;;;;;;5047717;28;20050;-47
2022/09/11 07:07:47;;;;;;;1.77;1.00;;;;;;;;;;5045797;28;20315;-47
2022/09/11 07:10:13;;;;;;;4.10;0.93;;;;;;;;;;5048156;28;20095;-46
2022/09/11 07:12:40;;;;;;;1.30;1.10;;;;;;;;;;5046998;28;20049;-44
2022/09/11 07:15:07;;;;;;;2.22;1.10;;;;;;;;;;5045564;28;20041;-44
2022/09/11 07:17:33;;;;;;;1.38;1.15;;;;;;;;;;5048146;28;20051;-47
2022/09/11 07:19:59;;;;;;;1.45;0.90;;;;;;;;;;5046924;28;20041;-45
2022/09/11 07:22:25;;;;;;;6.47;0.98;;;;;;;;;;5047012;28;20506;-46
2022/09/11 07:24:54;;;;;;;2.25;0.95;;;;;;;;;;5044263;28;20061;-46
2022/09/11 07:27:20;;;;;;;2.97;0.63;;;;;;;;;;5043805;28;20041;-49
2022/09/11 07:29:45;;;;;;;2.20;0.93;;;;;;;;;;5047742;28;20037;-44
2022/09/11 07:32:11;;;;;;;1.58;0.80;;;;;;;;;;5042458;28;20052;-44
2022/09/11 07:34:37;;;;;;;3.20;0.98;;;;;;;;;;5047900;28;20520;-45
2022/09/11 07:37:03;;;;;;;3.40;1.02;;;;;;;;;;5046388;28;20040;-45
2022/09/11 07:39:29;;;;;;;2.15;0.95;;;;;;;;;;5048495;28;20136;-46
2022/09/11 07:41:55;;;;;;;2.67;0.93;;;;;;;;;;5045717;28;20468;-45
2022/09/11 07:44:22;;;;;;;4.88;1.10;;;;;;;;;;5047613;28;20517;-47
2022/09/11 07:46:50;;;;;;;4.03;1.00;;;;;;;;;;5047683;28;20112;-45
2022/09/11 07:49:16;;;;;;;3.97;1.23;;;;;;;;;;5046217;28;20055;-45
2022/09/11 07:51:42;;;;;;;2.13;1.20;;;;;;;;;;5044222;28;20045;-50
2022/09/11 07:54:11;;;;;;;2.35;1.10;;;;;;;;;;5047603;28;20056;-45
2022/09/11 07:56:37;;;;;;;5.82;1.10;;;;;;;;;;5044560;28;20056;-45
2022/09/11 07:59:07;;;;;;;2.05;0.90;;;;;;;;;;5047789;28;20026;-46
2022/09/11 08:01:33;;;;;;;3.83;0.80;;;;;;;;;;5047419;28;20789;-44
2022/09/11 08:04:04;;;;;;;2.58;0.95;;;;;;;;;;5046914;28;20437;-45
2022/09/11 08:06:32;;;;;;;0.88;0.65;;;;;;;;;;5048239;28;20045;-45
2022/09/11 08:09:01;;;;;;;1.50;0.77;;;;;;;;;;5045433;28;20068;-47
2022/09/11 08:11:28;;;;;;;1.52;0.70;;;;;;;;;;5045379;28;20064;-46
2022/09/11 08:13:55;;;;;;;2.20;0.98;;;;;;;;;;5044578;28;20149;-45
2022/09/11 08:16:25;;;;;;;1.25;0.77;;;;;;;;;;5048328;28;20394;-45
2022/09/11 08:18:51;;;;;;;0.93;0.50;;;;;;;;;;5046315;28;20064;-45
2022/09/11 08:21:18;;;;;;;3.75;0.90;;;;;;;;;;5047844;28;20060;-47
2022/09/11 08:23:44;;;;;;;5.05;0.88;;;;;;;;;;5042742;28;20039;-47
2022/09/11 08:26:22;;;;;;;2.08;0.70;;;;;;;;;;5045126;28;20140;-44
2022/09/11 08:28:51;;;;;;;1.67;0.80;;;;;;;;;;5045689;28;20041;-49
2022/09/11 08:31:18;;;;;;;1.77;0.80;;;;;;;;;;5046253;28;20099;-44
2022/09/11 08:33:44;;;;;;;3.83;1.15;;;;;;;;;;5044166;28;20029;-46
2022/09/11 08:36:15;;;;;;;1.50;0.88;;;;;;;;;;5045767;28;20062;-44
2022/09/11 08:38:42;;;;;;;2.80;0.90;;;;;;;;;;5045648;28;20118;-46
2022/09/11 08:41:12;;;;;;;3.33;0.93;;;;;;;;;;5041707;28;20036;-45
2022/09/11 08:43:46;;;;;;;1.60;0.65;;;;;;;;;;5047346;28;20479;-45
2022/09/11 08:46:12;;;;;;;1.17;0.55;;;;;;;;;;5045597;28;20049;-45
2022/09/11 08:48:48;;;;;;;1.00;0.88;;;;;;;;;;5045835;28;20375;-45
2022/09/11 08:51:17;;;;;;;4.97;1.15;;;;;;;;;;5045975;28;20123;-46
2022/09/11 08:53:44;;;;;;;4.13;0.88;;;;;;;;;;5044631;28;20033;-45
2022/09/11 08:56:22;;;;;;;1.75;0.90;;;;;;;;;;5044518;28;20120;-46
2022/09/11 08:59:24;;;;;;;3.85;0.70;;;;;;;;;;5004246;28;20033;-49
2022/09/11 09:02:08;;;;;;;2.20;0.80;;;;;;;;;;5006321;28;20041;-45
2022/09/11 09:04:59;;;;;;;0.68;0.57;;;;;;;;;;5003188;28;20048;-45
2022/09/11 09:07:42;;;;;;;3.83;0.65;;;;;;;;;;5006833;28;20049;-46
2022/09/11 09:10:39;;;;;;;0.43;0.43;;;;;;;;;;5002618;28;20042;-47
2022/09/11 09:13:36;;;;;;;3.85;0.77;;;;;;;;;;5004901;28;20046;-48
2022/09/11 09:16:17;;;;;;;4.60;0.90;;;;;;;;;;5005016;28;20038;-46
2022/09/11 09:18:49;;;;;;;4.07;1.00;;;;;;;;;;5005852;28;20042;-45
2022/09/11 09:21:19;;;;;;;;;;;;;;;;;;5007479;28;20054;-44
2022/09/11 09:23:52;;;;;;;1.52;0.63;;;;;;;;;;5005841;28;19925;-46
2022/09/11 09:26:19;;;;;;;3.97;1.05;;;;;;;;;;5006023;28;20049;-49
2022/09/11 09:28:51;;;;;;;1.42;0.70;;;;;;;;;;5004579;28;20042;-45
2022/09/11 09:31:19;;;;;;;4.47;0.80;;;;;;;;;;5002685;28;20057;-46
2022/09/11 09:34:07;;;;;;;2.50;0.73;;;;;;;;;;5007694;28;20525;-45
2022/09/11 09:36:38;;;;;;;1.42;0.70;;;;;;;;;;5003469;28;20042;-45
2022/09/11 09:39:12;;;;;;;2.00;0.68;;;;;;;;;;5021090;28;20034;-44
2022/09/11 09:41:55;;;;;;;1.33;0.75;;;;;;;;;;5003331;28;20034;-45
2022/09/11 09:44:45;;;;;;;5.07;0.80;;;;;;;;;;5005362;28;20491;-45
2022/09/11 09:47:12;;;;;;;6.05;0.82;;;;;;;;;;5002546;28;20502;-44
2022/09/11 09:49:38;;;;;;;1.20;0.90;;;;;;;;;;5007053;28;20054;-46
2022/09/11 09:52:23;;;;;;;2.65;0.95;;;;;;;;;;5005747;28;20038;-45
2022/09/11 09:54:59;;;;;;;2.58;1.08;;;;;;;;;;5003842;28;20034;-45
2022/09/11 09:57:33;;;;;;;1.63;0.80;;;;;;;;;;5023900;28;20041;-46
2022/09/11 10:00:12;;;;;;;1.90;0.80;;;;;;;;;;5044327;28;20037;-48
2022/09/11 10:02:42;;;;;;;1.42;0.80;;;;;;;;;;5045032;28;20060;-47
2022/09/11 10:05:35;;;;;;;2.13;1.00;;;;;;;;;;5044003;28;20041;-48
2022/09/11 10:08:04;;;;;;;2.70;0.93;;;;;;;;;;5043801;28;20045;-45
2022/09/11 10:10:33;;;;;;;4.65;0.90;;;;;;;;;;5045683;28;20445;-45
2022/09/11 10:13:02;;;;;;;7.18;0.80;;;;;;;;;;5043731;28;20457;-48
2022/09/11 10:15:28;;;;;;;3.90;0.90;;;;;;;;;;5045129;28;20503;-46
2022/09/11 10:18:31;;;;;;;1.77;0.90;;;;;;;;;;5046327;28;20040;-48
2022/09/11 10:21:13;;;;;;;2.90;0.73;;;;;;;;;;5044030;28;20037;-48
2022/09/11 10:23:53;;;;;;;1.17;0.80;;;;;;;;;;5042647;28;20051;-46
2022/09/11 10:26:23;;;;;;;3.33;1.30;;;;;;;;;;5042114;28;20083;-47
2022/09/11 10:28:50;;;;;;;2.22;0.73;;;;;;;;;;5044529;28;20114;-47
2022/09/11 10:31:17;;;;;;;1.77;0.65;;;;;;;;;;5041138;28;20390;-45
2022/09/11 10:34:03;;;;;;;0.95;0.77;;;;;;;;;;5044538;28;20116;-46
2022/09/11 10:36:29;;;;;;;3.30;0.70;;;;;;;;;;5042586;28;20041;-48
2022/09/11 10:38:57;;;;;;;1.58;0.90;;;;;;;;;;5045443;28;20085;-45
2022/09/11 10:41:26;;;;;;;3.25;1.08;;;;;;;;;;5044906;28;20460;-45
2022/09/11 10:44:04;;;;;;;8.45;1.20;;;;;;;;;;5042102;28;20033;-47
2022/09/11 10:46:31;;;;;;;2.20;0.82;;;;;;;;;;5042815;28;20044;-45
2022/09/11 10:49:01;;;;;;;2.85;0.90;;;;;;;;;;5045710;28;20064;-45
2022/09/11 10:51:30;;;;;;;2.47;0.88;;;;;;;;;;5048609;28;20047;-44
2022/09/11 10:53:55;;;;;;;1.90;0.80;;;;;;;;;;5050348;28;20385;-45
2022/09/11 10:56:21;;;;;;;1.35;0.90;;;;;;;;;;5048134;28;20045;-45
2022/09/11 10:58:51;;;;;;;6.63;1.48;;;;;;;;;;5044503;28;20034;-46
2022/09/11 11:01:17;;;;;;;3.08;0.88;;;;;;;;;;5046044;28;20110;-45
2022/09/11 11:03:44;;;;;;;0.45;0.45;;;;;;;;;;5046228;28;20041;-46
2022/09/11 11:06:24;;;;;;;1.70;0.80;;;;;;;;;;5046605;28;20029;-46
2022/09/11 11:09:05;;;;;;;1.65;0.80;;;;;;;;;;5047472;28;20044;-48
2022/09/11 11:11:33;;;;;;;4.13;0.65;;;;;;;;;;5046445;28;20048;-45
2022/09/11 11:14:15;;;;;;;3.40;1.45;;;;;;;;;;5043790;28;20044;-45
2022/09/11 11:17:03;;;;;;;1.02;0.60;;;;;;;;;;5046002;28;20033;-46
2022/09/11 11:19:29;;;;;;;3.40;0.88;;;;;;;;;;5047847;28;20135;-46
2022/09/11 11:22:16;;;;;;;1.65;0.90;;;;;;;;;;5048216;28;20124;-46
2022/09/11 11:25:21;;;;;;;7.25;1.45;;;;;;;;;;5047423;28;20033;-45
2022/09/11 11:28:24;;;;;;;7.57;1.30;;;;;;;;;;5048722;28;20049;-45
2022/09/11 11:31:14;;;;;;;0.77;0.57;;;;;;;;;;5042362;28;20508;-47
2022/09/11 11:34:11;;;;;;;3.45;0.88;;;;;;;;;;5046260;28;20090;-45
2022/09/11 11:36:45;;;;;;;2.50;0.70;;;;;;;;;;5047351;28;20037;-46
2022/09/11 11:39:35;;;;;;;2.15;0.80;;;;;;;;;;5042043;28;20137;-45
2022/09/11 11:42:03;;;;;;;0.70;0.60;;;;;;;;;;5047043;28;20044;-45
2022/09/11 11:44:59;;;;;;;1.48;0.60;;;;;;;;;;5046793;28;20033;-45
2022/09/11 11:47:31;;;;;;;0.88;0.52;;;;;;;;;;4983725;28;20053;-47
2022/09/11 11:50:00;;;;;;;1.30;0.80;;;;;;;;;;4982281;28;20589;-50
2022/09/11 11:52:36;;;;;;;1.60;0.80;;;;;;;;;;4987013;28;20074;-45
2022/09/11 11:55:40;;;;;;;4.32;1.00;;;;;;;;;;4985546;28;20372;-46
2022/09/11 11:58:15;;;;;;;2.63;1.17;;;;;;;;;;4947859;28;20051;-45
2022/09/11 12:00:48;;;;;;;2.63;1.00;;;;;;;;;;4946187;28;20047;-45
2022/09/11 12:03:28;;;;;;;1.77;0.75;;;;;;;;;;4947775;28;20135;-46
2022/09/11 12:05:55;;;;;;;3.65;0.90;;;;;;;;;;4945956;28;20031;-47
2022/09/11 12:08:20;;;;;;;2.30;1.02;;;;;;;;;;4944008;28;20432;-49
2022/09/11 12:10:55;;;;;;;1.73;0.60;;;;;;;;;;4944902;28;20039;-47
2022/09/11 12:13:28;;;;;;;0.82;0.80;;;;;;;;;;4947415;28;20039;-48
2022/09/11 12:16:26;;;;;;;1.52;0.82;;;;;;;;;;4945919;28;20101;-45
2022/09/11 12:19:16;;;;;;;3.47;0.80;;;;;;;;;;4946201;28;20059;-45
2022/09/11 12:22:08;;;;;;;5.65;1.02;;;;;;;;;;4946684;28;20047;-45
2022/09/11 12:24:53;;;;;;;2.50;0.70;;;;;;;;;;4945844;28;20046;-46
2022/09/11 12:27:45;;;;;;;1.65;0.57;;;;;;;;;;4945707;28;20039;-45
2022/09/11 12:30:17;;;;;;;1.02;0.63;;;;;;;;;;4906796;29;20051;-45
2022/09/11 12:32:44;;;;;;;1.98;0.80;;;;;;;;;;4920795;29;20087;-45
2022/09/11 12:35:31;;;;;;;1.70;0.88;;;;;;;;;;4924515;28;20044;-45
2022/09/11 12:37:59;;;;;;;1.52;0.80;;;;;;;;;;4924760;28;20611;-45
2022/09/11 12:40:34;;;;;;;2.83;1.08;;;;;;;;;;4923868;29;20079;-49
2022/09/11 12:43:19;;;;;;;2.30;0.73;;;;;;;;;;4925104;29;20043;-45
2022/09/11 12:45:47;;;;;;;1.08;0.50;;;;;;;;;;4925113;28;20052;-46
2022/09/11 12:48:19;;;;;;;1.95;0.70;;;;;;;;;;4923617;28;20032;-48
2022/09/11 12:50:50;;;;;;;2.38;0.50;;;;;;;;;;4921385;29;20042;-46
2022/09/11 12:53:22;;;;;;;4.05;0.70;;;;;;;;;;4923537;28;20039;-46
2022/09/11 12:56:04;;;;;;;2.35;1.00;;;;;;;;;;4924652;28;20563;-45
2022/09/11 12:58:30;;;;;;;;;;;;;;;;;;4943376;28;20047;-45
2022/09/11 13:01:28;;;;;;;0.70;0.50;;;;;;;;;;4946393;28;19933;-45
2022/09/11 13:04:05;;;;;;;1.67;1.02;;;;;;;;;;4940347;28;20058;-50
2022/09/11 13:06:46;;;;;;;0.82;0.50;;;;;;;;;;4969616;28;20467;-46
2022/09/11 13:09:26;;;;;;;3.80;0.60;;;;;;;;;;5025650;28;20044;-44
2022/09/11 13:12:20;;;;;;;2.13;0.63;;;;;;;;;;5025938;28;20057;-45
2022/09/11 13:14:50;;;;;;;1.35;0.60;;;;;;;;;;5023100;28;20623;-46
2022/09/11 13:17:44;;;;;;;2.55;0.70;;;;;;;;;;5016490;28;20033;-45
2022/09/11 13:20:10;;;;;;;0.93;0.45;;;;;;;;;;5020890;28;20076;-52
2022/09/11 13:22:37;;;;;;;2.65;0.85;;;;;;;;;;5025685;28;20069;-48
2022/09/11 13:25:25;;;;;;;3.72;0.80;;;;;;;;;;5024584;28;20128;-45
2022/09/11 13:27:55;;;;;;;0.82;0.70;;;;;;;;;;5026431;28;20065;-45
2022/09/11 13:30:23;;;;;;;3.53;0.53;;;;;;;;;;5003225;28;20076;-45
2022/09/11 13:33:12;;;;;;;2.42;0.47;;;;;;;;;;5014852;28;20049;-47
2022/09/11 13:35:43;;;;;;;1.00;0.70;;;;;;;;;;5007769;28;20054;-45
2022/09/11 13:38:33;;;;;;;0.63;0.57;;;;;;;;;;5015707;28;20482;-46
2022/09/11 13:41:05;;;;;;;1.17;0.70;;;;;;;;;;5007554;28;20420;-45
2022/09/11 13:43:43;;;;;;;2.75;0.70;;;;;;;;;;5002392;28;20510;-47
2022/09/11 13:46:16;;;;;;;2.17;0.65;;;;;;;;;;5002748;28;20041;-45
2022/09/11 13:48:50;;;;;;;1.02;0.77;;;;;;;;;;5005571;28;20037;-46
2022/09/11 13:51:20;;;;;;;1.10;0.60;;;;;;;;;;4997731;28;20072;-47
2022/09/11 13:53:55;;;;;;;2.65;1.00;;;;;;;;;;4998697;28;20048;-50
2022/09/11 13:56:55;;;;;;;1.60;0.70;;;;;;;;;;5008614;28;20049;-47
2022/09/11 13:59:40;;;;;;;1.33;0.57;;;;;;;;;;4998269;28;20112;-46
2022/09/11 14:02:41;;;;;;;3.80;0.75;;;;;;;;;;4996229;28;20522;-47
2022/09/11 14:05:30;;;;;;;0.65;0.65;;;;;;;;;;4998837;28;20049;-45
2022/09/11 14:08:02;;;;;;;1.50;0.63;;;;;;;;;;4996110;28;20038;-47
2022/09/11 14:10:48;;;;;;;3.53;1.40;;;;;;;;;;4997069;28;20100;-46
2022/09/11 14:13:19;;;;;;;1.08;0.70;;;;;;;;;;4994868;28;20062;-47
2022/09/11 14:15:53;;;;;;;1.85;0.60;;;;;;;;;;4995369;28;20121;-45
2022/09/11 14:18:33;;;;;;;3.05;0.63;;;;;;;;;;4995899;28;20124;-45
2022/09/11 14:21:04;;;;;;;0.98;0.70;;;;;;;;;;4999872;28;20030;-45
2022/09/11 14:23:30;;;;;;;1.42;0.65;;;;;;;;;;5002921;28;20050;-46
2022/09/11 14:26:14;;;;;;;0.68;0.45;;;;;;;;;;5000267;28;20045;-46
2022/09/11 14:28:48;;;;;;;1.80;0.70;;;;;;;;;;5001961;28;20049;-45
2022/09/11 14:31:26;;;;;;;5.13;1.02;;;;;;;;;;4998164;28;20038;-46
2022/09/11 14:34:12;;;;;;;1.10;0.85;;;;;;;;;;5005696;28;20037;-45
2022/09/11 14:37:01;;;;;;;1.60;0.82;;;;;;;;;;5020505;28;20041;-48
2022/09/11 14:39:44;;;;;;;1.85;0.65;;;;;;;;;;5022439;28;20053;-45
2022/09/11 14:42:22;;;;;;;3.60;0.80;;;;;;;;;;5019915;28;20045;-47
2022/09/11 14:44:48;;;;;;;1.40;0.80;;;;;;;;;;5021427;28;20038;-46
2022/09/11 14:47:18;;;;;;;1.65;0.52;;;;;;;;;;5023649;28;20052;-49
2022/09/11 14:49:49;;;;;;;0.73;0.60;;;;;;;;;;5025509;28;20029;-45
2022/09/11 14:52:17;;;;;;;3.00;0.85;;;;;;;;;;5025067;28;20454;-47
2022/09/11 14:54:44;;;;;;;1.77;0.90;;;;;;;;;;5023588;28;20441;-46
2022/09/11 14:57:15;;;;;;;0.85;0.47;;;;;;;;;;5028376;28;20098;-47
2022/09/11 14:59:41;;;;;;;2.17;0.75;;;;;;;;;;5043288;28;20536;-45
2022/09/11 15:02:11;;;;;;;1.50;0.55;;;;;;;;;;5044553;28;20034;-46
2022/09/11 15:04:37;;;;;;;1.55;0.85;;;;;;;;;;5045469;28;20626;-45
2022/09/11 15:07:03;;;;;;;4.07;0.70;;;;;;;;;;5042058;28;20172;-49
2022/09/11 15:09:28;;;;;;;1.88;0.70;;;;;;;;;;5045352;28;20103;-45
2022/09/11 15:11:54;;;;;;;1.13;1.05;;;;;;;;;;5044835;28;20029;-47
2022/09/11 15:14:20;;;;;;;2.58;0.68;;;;;;;;;;5043841;28;22376;-46